RYR71KE EGSS-LIPZ
Flight info
| Callsign | RYR71KE |
|---|---|
| Flight time | 1h 47m |
| Altitude | 37000 |
| Route | CLN M84 KONAN UL607 KOK M150 PITES DCT EDISA DCT PICWI DCT BATUB M738 ADOSA L612 ALBET |
| Aircraft | B738/M-SDE2E3FGHIRWXY/LB1 |
Departure
| Time | 2026-05-04 11:10 |
|---|---|
| Airport | London Stansted Airport (EGSS) |
Arrival
| Time | 2026-05-04 12:57 |
|---|---|
| Airport | Venice Marco Polo Airport (LIPZ) |
| Time | Latitude | Longitude | Altitude | Speed | Heading |
|---|---|---|---|---|---|
| 2026-05-04 10:37 | 51.89079 | 0.25643 | 355 ft | 0 kts | 42° |
| 2026-05-04 10:58 | 51.89065 | 0.25623 | 357 ft | 4 kts | 42° |
| 2026-05-04 10:58 | 51.89046 | 0.25594 | 356 ft | 4 kts | 28° |
| 2026-05-04 10:58 | 51.89027 | 0.25590 | 361 ft | 3 kts | 315° |
| 2026-05-04 10:58 | 51.89012 | 0.25614 | 359 ft | 3 kts | 313° |
| 2026-05-04 10:59 | 51.89009 | 0.25619 | 358 ft | 0 kts | 313° |
| 2026-05-04 11:05 | 51.88146 | 0.23731 | 339 ft | 26 kts | 221° |
| 2026-05-04 11:06 | 51.88020 | 0.23542 | 337 ft | 24 kts | 223° |
| 2026-05-04 11:06 | 51.87901 | 0.23364 | 338 ft | 23 kts | 223° |
| 2026-05-04 11:06 | 51.87786 | 0.23192 | 339 ft | 22 kts | 223° |
| 2026-05-04 11:06 | 51.87736 | 0.23027 | 339 ft | 13 kts | 302° |
| 2026-05-04 11:08 | 51.87596 | 0.22299 | 323 ft | 11 kts | 323° |
| 2026-05-04 11:10 | 51.90920 | 0.27196 | 2060 ft | 171 kts | 47° |
| 2026-05-04 11:12 | 51.87921 | 0.44289 | 5722 ft | 271 kts | 116° |
| 2026-05-04 11:12 | 51.87111 | 0.47029 | 6143 ft | 270 kts | 115° |
| 2026-05-04 11:12 | 51.86298 | 0.49805 | 6825 ft | 277 kts | 116° |
| 2026-05-04 11:12 | 51.85467 | 0.52638 | 7609 ft | 279 kts | 116° |
| 2026-05-04 11:13 | 51.84630 | 0.55497 | 8369 ft | 283 kts | 117° |
| 2026-05-04 11:13 | 51.83781 | 0.58393 | 9138 ft | 287 kts | 116° |
| 2026-05-04 11:13 | 51.83140 | 0.61464 | 9892 ft | 292 kts | 102° |
| 2026-05-04 11:13 | 51.82935 | 0.64768 | 10424 ft | 304 kts | 90° |
| 2026-05-04 11:14 | 51.83046 | 0.68323 | 10587 ft | 328 kts | 86° |
| 2026-05-04 11:14 | 51.83222 | 0.72079 | 11002 ft | 341 kts | 86° |
| 2026-05-04 11:14 | 51.83399 | 0.75935 | 11659 ft | 346 kts | 87° |
| 2026-05-04 11:16 | 51.84430 | 1.04134 | 16706 ft | 373 kts | 88° |
| 2026-05-04 11:16 | 51.84571 | 1.08337 | 17456 ft | 376 kts | 90° |
| 2026-05-04 11:16 | 51.84246 | 1.12507 | 18138 ft | 376 kts | 112° |
| 2026-05-04 11:17 | 51.82982 | 1.16170 | 18791 ft | 374 kts | 131° |
| 2026-05-04 11:17 | 51.81072 | 1.18995 | 19358 ft | 374 kts | 148° |
| 2026-05-04 11:19 | 51.65215 | 1.34974 | 23416 ft | 392 kts | 162° |
| 2026-05-04 11:19 | 51.62629 | 1.36169 | 23913 ft | 392 kts | 172° |
| 2026-05-04 11:19 | 51.59934 | 1.36628 | 24445 ft | 389 kts | 180° |
| 2026-05-04 11:19 | 51.57225 | 1.36747 | 24997 ft | 389 kts | 181° |
| 2026-05-04 11:20 | 51.54520 | 1.36847 | 25508 ft | 390 kts | 181° |
| 2026-05-04 11:20 | 51.51801 | 1.36980 | 25988 ft | 391 kts | 180° |
| 2026-05-04 11:20 | 51.49076 | 1.37139 | 26459 ft | 393 kts | 180° |
| 2026-05-04 11:20 | 51.46339 | 1.37441 | 26902 ft | 397 kts | 172° |
| 2026-05-04 11:22 | 51.32336 | 1.60423 | 29714 ft | 432 kts | 132° |
| 2026-05-04 11:22 | 51.30516 | 1.64221 | 30204 ft | 430 kts | 132° |
| 2026-05-04 11:23 | 51.28693 | 1.68002 | 30574 ft | 430 kts | 132° |
| 2026-05-04 11:23 | 51.26855 | 1.71799 | 30837 ft | 433 kts | 132° |
| 2026-05-04 11:24 | 51.15772 | 1.94554 | 33000 ft | 431 kts | 131° |
| 2026-05-04 11:25 | 51.14229 | 1.98690 | 33345 ft | 439 kts | 120° |
| 2026-05-04 11:25 | 51.13140 | 2.03260 | 33741 ft | 445 kts | 111° |
| 2026-05-04 11:25 | 51.12524 | 2.08120 | 34071 ft | 452 kts | 102° |
| 2026-05-04 11:26 | 51.12012 | 2.18132 | 34591 ft | 455 kts | 99° |
| 2026-05-04 11:27 | 51.10194 | 2.53115 | 36304 ft | 455 kts | 99° |
| 2026-05-04 11:28 | 51.09910 | 2.58117 | 36580 ft | 453 kts | 99° |
| 2026-05-04 11:28 | 51.09490 | 2.63073 | 36815 ft | 450 kts | 107° |
| 2026-05-04 11:28 | 51.08613 | 2.67818 | 36998 ft | 446 kts | 115° |
| 2026-05-04 11:28 | 51.07297 | 2.72275 | 37005 ft | 445 kts | 122° |
| 2026-05-04 11:29 | 51.04363 | 2.80922 | 37003 ft | 442 kts | 122° |
| 2026-05-04 11:29 | 51.01917 | 2.88084 | 37006 ft | 439 kts | 122° |
| 2026-05-04 11:33 | 50.81817 | 3.47459 | 36989 ft | 441 kts | 123° |
| 2026-05-04 11:33 | 50.78890 | 3.56005 | 36993 ft | 443 kts | 123° |
| 2026-05-04 11:34 | 50.75958 | 3.64536 | 37000 ft | 445 kts | 123° |
| 2026-05-04 11:34 | 50.72994 | 3.73134 | 36986 ft | 446 kts | 123° |
| 2026-05-04 11:35 | 50.70022 | 3.81728 | 36994 ft | 446 kts | 123° |
| 2026-05-04 11:35 | 50.67043 | 3.90301 | 37000 ft | 445 kts | 123° |
| 2026-05-04 11:36 | 50.64066 | 3.98846 | 36996 ft | 444 kts | 123° |
| 2026-05-04 11:36 | 50.61088 | 4.07359 | 36994 ft | 443 kts | 123° |
| 2026-05-04 11:37 | 50.58117 | 4.15832 | 37003 ft | 442 kts | 123° |
| 2026-05-04 11:37 | 50.55147 | 4.24278 | 36997 ft | 440 kts | 123° |
| 2026-05-04 11:38 | 50.52175 | 4.32674 | 36991 ft | 439 kts | 124° |
| 2026-05-04 11:38 | 50.49205 | 4.41054 | 36990 ft | 438 kts | 124° |
| 2026-05-04 11:39 | 50.46237 | 4.49408 | 36998 ft | 438 kts | 124° |
| 2026-05-04 11:41 | 50.35823 | 4.78542 | 37009 ft | 438 kts | 124° |
| 2026-05-04 11:41 | 50.32822 | 4.86865 | 37013 ft | 440 kts | 124° |
| 2026-05-04 11:42 | 50.29822 | 4.95153 | 36997 ft | 441 kts | 124° |
| 2026-05-04 11:42 | 50.26793 | 5.03505 | 37010 ft | 443 kts | 124° |
| 2026-05-04 11:43 | 50.23748 | 5.11870 | 36995 ft | 444 kts | 125° |
| 2026-05-04 11:43 | 50.20685 | 5.20256 | 37002 ft | 445 kts | 124° |
| 2026-05-04 11:44 | 50.17615 | 5.28647 | 37003 ft | 446 kts | 125° |
| 2026-05-04 11:44 | 50.14532 | 5.37038 | 36998 ft | 446 kts | 125° |
| 2026-05-04 11:45 | 50.11440 | 5.45405 | 37003 ft | 445 kts | 125° |
| 2026-05-04 11:45 | 50.08343 | 5.53735 | 36993 ft | 444 kts | 126° |
| 2026-05-04 11:46 | 50.05244 | 5.62044 | 36991 ft | 443 kts | 126° |
| 2026-05-04 11:46 | 50.02150 | 5.70333 | 37005 ft | 443 kts | 126° |
| 2026-05-04 11:47 | 49.99052 | 5.78621 | 36999 ft | 444 kts | 125° |
| 2026-05-04 11:47 | 49.95945 | 5.86906 | 37009 ft | 444 kts | 126° |
| 2026-05-04 11:48 | 49.92826 | 5.95186 | 36994 ft | 444 kts | 126° |
| 2026-05-04 11:48 | 49.89708 | 6.03456 | 36994 ft | 444 kts | 126° |
| 2026-05-04 11:49 | 49.86580 | 6.11718 | 37012 ft | 444 kts | 126° |
| 2026-05-04 11:49 | 49.83587 | 6.20126 | 37016 ft | 447 kts | 122° |
| 2026-05-04 11:50 | 49.80752 | 6.28696 | 37027 ft | 448 kts | 122° |
| 2026-05-04 11:50 | 49.77870 | 6.37287 | 37002 ft | 450 kts | 123° |
| 2026-05-04 11:51 | 49.74954 | 6.45867 | 37000 ft | 450 kts | 123° |
| 2026-05-04 11:51 | 49.72015 | 6.54307 | 37006 ft | 447 kts | 125° |
| 2026-05-04 11:52 | 49.68775 | 6.62468 | 37006 ft | 445 kts | 127° |
| 2026-05-04 11:52 | 49.65462 | 6.70527 | 36994 ft | 445 kts | 127° |
| 2026-05-04 11:53 | 49.62174 | 6.78599 | 36975 ft | 444 kts | 127° |
| 2026-05-04 11:53 | 49.58908 | 6.86670 | 36993 ft | 443 kts | 127° |
| 2026-05-04 11:55 | 49.45910 | 7.18614 | 36993 ft | 441 kts | 127° |
| 2026-05-04 11:56 | 49.42643 | 7.26586 | 37009 ft | 441 kts | 127° |
| 2026-05-04 11:56 | 49.39395 | 7.34462 | 37015 ft | 441 kts | 127° |
| 2026-05-04 11:57 | 49.36114 | 7.42416 | 37016 ft | 441 kts | 127° |
| 2026-05-04 11:57 | 49.32825 | 7.50373 | 37009 ft | 442 kts | 127° |
| 2026-05-04 11:58 | 49.29523 | 7.58332 | 36985 ft | 443 kts | 127° |
| 2026-05-04 11:58 | 49.26216 | 7.66282 | 36997 ft | 443 kts | 127° |
| 2026-05-04 11:59 | 49.24665 | 7.70001 | 37011 ft | 443 kts | 128° |
| 2026-05-04 11:59 | 49.21342 | 7.77953 | 37015 ft | 444 kts | 128° |
| 2026-05-04 12:00 | 49.18034 | 7.85850 | 37014 ft | 444 kts | 127° |
| 2026-05-04 12:00 | 49.14679 | 7.93845 | 37024 ft | 444 kts | 128° |
| 2026-05-04 12:01 | 49.11357 | 8.01729 | 37007 ft | 444 kts | 127° |
| 2026-05-04 12:02 | 48.99590 | 8.29408 | 37011 ft | 443 kts | 131° |
| 2026-05-04 12:03 | 48.95335 | 8.35989 | 37021 ft | 433 kts | 145° |
| 2026-05-04 12:03 | 48.90730 | 8.41910 | 37024 ft | 434 kts | 144° |
| 2026-05-04 12:04 | 48.86150 | 8.47900 | 37019 ft | 435 kts | 144° |
| 2026-05-04 12:04 | 48.81576 | 8.53900 | 37010 ft | 434 kts | 144° |
| 2026-05-04 12:05 | 48.76994 | 8.59858 | 37014 ft | 434 kts | 144° |
| 2026-05-04 12:05 | 48.72428 | 8.65843 | 37015 ft | 433 kts | 144° |
| 2026-05-04 12:06 | 48.67871 | 8.71806 | 37003 ft | 433 kts | 144° |
| 2026-05-04 12:06 | 48.63308 | 8.77758 | 37001 ft | 433 kts | 144° |
| 2026-05-04 12:07 | 48.58738 | 8.83695 | 37004 ft | 434 kts | 144° |
| 2026-05-04 12:07 | 48.54159 | 8.89633 | 37006 ft | 434 kts | 144° |
| 2026-05-04 12:08 | 48.49570 | 8.95568 | 36997 ft | 435 kts | 144° |
| 2026-05-04 12:08 | 48.44980 | 9.01490 | 37002 ft | 435 kts | 144° |
| 2026-05-04 12:09 | 48.40384 | 9.07406 | 36993 ft | 435 kts | 144° |
| 2026-05-04 12:09 | 48.35778 | 9.13327 | 36996 ft | 436 kts | 144° |
| 2026-05-04 12:10 | 48.31162 | 9.19237 | 36997 ft | 437 kts | 144° |
| 2026-05-04 12:10 | 48.26559 | 9.25116 | 36992 ft | 437 kts | 144° |
| 2026-05-04 12:11 | 48.21894 | 9.31062 | 36984 ft | 437 kts | 144° |
| 2026-05-04 12:11 | 48.17284 | 9.36924 | 36984 ft | 437 kts | 144° |
| 2026-05-04 12:12 | 48.12641 | 9.42803 | 36967 ft | 437 kts | 144° |
| 2026-05-04 12:12 | 48.08000 | 9.48679 | 36979 ft | 437 kts | 144° |
| 2026-05-04 12:14 | 47.88758 | 9.70585 | 36979 ft | 436 kts | 149° |
| 2026-05-04 12:15 | 47.83829 | 9.75860 | 36959 ft | 436 kts | 148° |
| 2026-05-04 12:15 | 47.78916 | 9.81136 | 36971 ft | 435 kts | 148° |
| 2026-05-04 12:16 | 47.74006 | 9.86400 | 36979 ft | 434 kts | 148° |
| 2026-05-04 12:16 | 47.69936 | 9.90750 | 36981 ft | 434 kts | 148° |
| 2026-05-04 12:17 | 47.65042 | 9.95972 | 36981 ft | 433 kts | 148° |
| 2026-05-04 12:17 | 47.60148 | 10.01180 | 36980 ft | 433 kts | 148° |
| 2026-05-04 12:18 | 47.55253 | 10.06379 | 36970 ft | 432 kts | 148° |
| 2026-05-04 12:18 | 47.50360 | 10.11567 | 37004 ft | 433 kts | 148° |
| 2026-05-04 12:19 | 47.45453 | 10.16753 | 37009 ft | 434 kts | 148° |
| 2026-05-04 12:19 | 47.40425 | 10.21680 | 37021 ft | 433 kts | 152° |
| 2026-05-04 12:20 | 47.35255 | 10.26291 | 37019 ft | 435 kts | 152° |
| 2026-05-04 12:20 | 47.30100 | 10.30981 | 37011 ft | 435 kts | 152° |
| 2026-05-04 12:21 | 47.24955 | 10.35606 | 37056 ft | 432 kts | 152° |
| 2026-05-04 12:21 | 47.19833 | 10.40210 | 37043 ft | 431 kts | 152° |
| 2026-05-04 12:22 | 47.14725 | 10.44806 | 37052 ft | 432 kts | 152° |
| 2026-05-04 12:22 | 47.09596 | 10.49403 | 37043 ft | 434 kts | 152° |
| 2026-05-04 12:23 | 47.04312 | 10.53657 | 37045 ft | 431 kts | 163° |
| 2026-05-04 12:23 | 46.98652 | 10.56195 | 37071 ft | 429 kts | 167° |
| 2026-05-04 12:24 | 46.92965 | 10.58660 | 37054 ft | 430 kts | 166° |
| 2026-05-04 12:24 | 46.90123 | 10.59931 | 36752 ft | 432 kts | 166° |
| 2026-05-04 12:24 | 46.87507 | 10.61113 | 36616 ft | 423 kts | 166° |
| 2026-05-04 12:25 | 46.82070 | 10.63568 | 36603 ft | 422 kts | 166° |
| 2026-05-04 12:25 | 46.76380 | 10.66111 | 36609 ft | 431 kts | 166° |
| 2026-05-04 12:26 | 46.70711 | 10.68554 | 36464 ft | 433 kts | 169° |
| 2026-05-04 12:26 | 46.67797 | 10.69566 | 36193 ft | 430 kts | 170° |
| 2026-05-04 12:26 | 46.64896 | 10.70485 | 35928 ft | 424 kts | 171° |
| 2026-05-04 12:27 | 46.62017 | 10.71375 | 35695 ft | 422 kts | 171° |
| 2026-05-04 12:27 | 46.59138 | 10.72273 | 35416 ft | 423 kts | 171° |
| 2026-05-04 12:27 | 46.56267 | 10.73184 | 34817 ft | 422 kts | 170° |
| 2026-05-04 12:27 | 46.53403 | 10.74106 | 34303 ft | 422 kts | 169° |
| 2026-05-04 12:28 | 46.50531 | 10.75037 | 33654 ft | 423 kts | 170° |
| 2026-05-04 12:28 | 46.47662 | 10.75969 | 33001 ft | 424 kts | 170° |
| 2026-05-04 12:28 | 46.44799 | 10.76902 | 32615 ft | 419 kts | 169° |
| 2026-05-04 12:28 | 46.41966 | 10.77824 | 32152 ft | 416 kts | 169° |
| 2026-05-04 12:29 | 46.39150 | 10.78739 | 31751 ft | 412 kts | 170° |
| 2026-05-04 12:29 | 46.36369 | 10.79642 | 31349 ft | 408 kts | 170° |
| 2026-05-04 12:29 | 46.33601 | 10.80541 | 30919 ft | 406 kts | 170° |
| 2026-05-04 12:29 | 46.30853 | 10.81433 | 30498 ft | 404 kts | 170° |
| 2026-05-04 12:30 | 46.28124 | 10.82318 | 30075 ft | 401 kts | 170° |
| 2026-05-04 12:30 | 46.25412 | 10.83195 | 29595 ft | 398 kts | 170° |
| 2026-05-04 12:30 | 46.22721 | 10.84063 | 29170 ft | 393 kts | 170° |
| 2026-05-04 12:30 | 46.20065 | 10.84917 | 28750 ft | 390 kts | 170° |
| 2026-05-04 12:31 | 46.17426 | 10.85763 | 28319 ft | 386 kts | 170° |
| 2026-05-04 12:31 | 46.14816 | 10.86598 | 27917 ft | 382 kts | 170° |
| 2026-05-04 12:31 | 46.12228 | 10.87424 | 27474 ft | 380 kts | 170° |
| 2026-05-04 12:31 | 46.09656 | 10.88246 | 27054 ft | 377 kts | 170° |
| 2026-05-04 12:32 | 46.07099 | 10.89061 | 26640 ft | 375 kts | 170° |
| 2026-05-04 12:32 | 46.02076 | 10.90663 | 25828 ft | 370 kts | 170° |
| 2026-05-04 12:32 | 45.99564 | 10.91464 | 25414 ft | 369 kts | 170° |
| 2026-05-04 12:33 | 45.97065 | 10.92262 | 25009 ft | 367 kts | 170° |
| 2026-05-04 12:33 | 45.94573 | 10.93058 | 24608 ft | 366 kts | 170° |
| 2026-05-04 12:33 | 45.92088 | 10.93851 | 24214 ft | 365 kts | 170° |
| 2026-05-04 12:33 | 45.89606 | 10.94642 | 23786 ft | 365 kts | 170° |
| 2026-05-04 12:34 | 45.87128 | 10.95430 | 23325 ft | 365 kts | 170° |
| 2026-05-04 12:34 | 45.84655 | 10.96215 | 22880 ft | 363 kts | 170° |
| 2026-05-04 12:34 | 45.82199 | 10.96993 | 22477 ft | 360 kts | 170° |
| 2026-05-04 12:34 | 45.79763 | 10.97763 | 22076 ft | 357 kts | 170° |
| 2026-05-04 12:35 | 45.77345 | 10.98523 | 21681 ft | 354 kts | 170° |
| 2026-05-04 12:35 | 45.74953 | 10.99276 | 21308 ft | 351 kts | 170° |
| 2026-05-04 12:35 | 45.72576 | 11.00025 | 20911 ft | 349 kts | 169° |
| 2026-05-04 12:35 | 45.70210 | 11.00768 | 20511 ft | 347 kts | 170° |
| 2026-05-04 12:36 | 45.67854 | 11.01506 | 20110 ft | 345 kts | 170° |
| 2026-05-04 12:36 | 45.65584 | 11.02598 | 19701 ft | 347 kts | 153° |
| 2026-05-04 12:36 | 45.63643 | 11.04644 | 19346 ft | 349 kts | 137° |
| 2026-05-04 12:36 | 45.62163 | 11.07406 | 18978 ft | 351 kts | 124° |
| 2026-05-04 12:37 | 45.60893 | 11.10375 | 18599 ft | 350 kts | 123° |
| 2026-05-04 12:37 | 45.59628 | 11.13342 | 18174 ft | 349 kts | 124° |
| 2026-05-04 12:37 | 45.58357 | 11.16285 | 17760 ft | 347 kts | 125° |
| 2026-05-04 12:37 | 45.57064 | 11.19174 | 17359 ft | 344 kts | 125° |
| 2026-05-04 12:38 | 45.55772 | 11.22034 | 16963 ft | 342 kts | 126° |
| 2026-05-04 12:38 | 45.54485 | 11.24875 | 16592 ft | 339 kts | 126° |
| 2026-05-04 12:38 | 45.53210 | 11.27690 | 16215 ft | 337 kts | 126° |
| 2026-05-04 12:38 | 45.51945 | 11.30480 | 15848 ft | 334 kts | 126° |
| 2026-05-04 12:39 | 45.50695 | 11.33254 | 15480 ft | 331 kts | 126° |
| 2026-05-04 12:39 | 45.49454 | 11.36006 | 15116 ft | 329 kts | 125° |
| 2026-05-04 12:39 | 45.48214 | 11.38736 | 14756 ft | 327 kts | 126° |
| 2026-05-04 12:39 | 45.46981 | 11.41449 | 14401 ft | 325 kts | 126° |
| 2026-05-04 12:40 | 45.45757 | 11.44150 | 14030 ft | 323 kts | 126° |
| 2026-05-04 12:40 | 45.44540 | 11.46832 | 13645 ft | 322 kts | 126° |
| 2026-05-04 12:40 | 45.43328 | 11.49500 | 13241 ft | 320 kts | 126° |
| 2026-05-04 12:40 | 45.42069 | 11.52092 | 12921 ft | 315 kts | 132° |
| 2026-05-04 12:41 | 45.40613 | 11.54399 | 12668 ft | 312 kts | 136° |
| 2026-05-04 12:41 | 45.39141 | 11.56613 | 12412 ft | 312 kts | 136° |
| 2026-05-04 12:41 | 45.37644 | 11.58911 | 12161 ft | 312 kts | 135° |
| 2026-05-04 12:41 | 45.36182 | 11.61188 | 11905 ft | 312 kts | 135° |
| 2026-05-04 12:42 | 45.34889 | 11.63670 | 11617 ft | 316 kts | 117° |
| 2026-05-04 12:42 | 45.34353 | 11.66660 | 11394 ft | 321 kts | 95° |
| 2026-05-04 12:42 | 45.34450 | 11.69835 | 11139 ft | 323 kts | 88° |
| 2026-05-04 12:42 | 45.34628 | 11.73021 | 10876 ft | 322 kts | 88° |
| 2026-05-04 12:43 | 45.34785 | 11.76168 | 10599 ft | 317 kts | 88° |
| 2026-05-04 12:43 | 45.34933 | 11.79321 | 10337 ft | 313 kts | 88° |
| 2026-05-04 12:43 | 45.34972 | 11.82382 | 10072 ft | 307 kts | 101° |
| 2026-05-04 12:43 | 45.34258 | 11.85096 | 9985 ft | 292 kts | 124° |
| 2026-05-04 12:44 | 45.33030 | 11.87376 | 9603 ft | 290 kts | 134° |
| 2026-05-04 12:44 | 45.31551 | 11.89259 | 9320 ft | 283 kts | 155° |
| 2026-05-04 12:44 | 45.29708 | 11.90001 | 9094 ft | 273 kts | 180° |
| 2026-05-04 12:44 | 45.27849 | 11.89633 | 9038 ft | 260 kts | 199° |
| 2026-05-04 12:45 | 45.26286 | 11.88494 | 8810 ft | 256 kts | 217° |
| 2026-05-04 12:45 | 45.24904 | 11.86850 | 8517 ft | 256 kts | 221° |
| 2026-05-04 12:45 | 45.23579 | 11.85160 | 8222 ft | 256 kts | 222° |
| 2026-05-04 12:45 | 45.22267 | 11.83456 | 7885 ft | 255 kts | 222° |
| 2026-05-04 12:46 | 45.20962 | 11.81787 | 7502 ft | 252 kts | 221° |
| 2026-05-04 12:46 | 45.19678 | 11.80161 | 7142 ft | 249 kts | 221° |
| 2026-05-04 12:46 | 45.18370 | 11.78509 | 6784 ft | 248 kts | 221° |
| 2026-05-04 12:46 | 45.17084 | 11.76887 | 6424 ft | 246 kts | 221° |
| 2026-05-04 12:47 | 45.15665 | 11.75573 | 5995 ft | 246 kts | 195° |
| 2026-05-04 12:47 | 45.14007 | 11.75614 | 5668 ft | 243 kts | 165° |
| 2026-05-04 12:47 | 45.12499 | 11.76715 | 5267 ft | 248 kts | 141° |
| 2026-05-04 12:47 | 45.11451 | 11.78629 | 4890 ft | 249 kts | 115° |
| 2026-05-04 12:48 | 45.11094 | 11.81053 | 4433 ft | 255 kts | 87° |
| 2026-05-04 12:48 | 45.11581 | 11.83415 | 4222 ft | 254 kts | 63° |
| 2026-05-04 12:48 | 45.12193 | 11.85739 | 4090 ft | 255 kts | 84° |
| 2026-05-04 12:48 | 45.12495 | 11.88202 | 3989 ft | 259 kts | 66° |
| 2026-05-04 12:49 | 45.13654 | 11.90059 | 4060 ft | 252 kts | 33° |
| 2026-05-04 12:49 | 45.15160 | 11.91355 | 3991 ft | 254 kts | 29° |
| 2026-05-04 12:49 | 45.16648 | 11.92645 | 3977 ft | 244 kts | 32° |
| 2026-05-04 12:49 | 45.18046 | 11.93851 | 3984 ft | 228 kts | 30° |
| 2026-05-04 12:50 | 45.19288 | 11.95128 | 3957 ft | 212 kts | 39° |
| 2026-05-04 12:50 | 45.20425 | 11.96445 | 3979 ft | 220 kts | 39° |
| 2026-05-04 12:50 | 45.21668 | 11.97946 | 4012 ft | 247 kts | 41° |
| 2026-05-04 12:50 | 45.22961 | 11.99564 | 4012 ft | 246 kts | 41° |
| 2026-05-04 12:51 | 45.24235 | 12.01196 | 3996 ft | 246 kts | 42° |
| 2026-05-04 12:51 | 45.25478 | 12.02852 | 4000 ft | 244 kts | 43° |
| 2026-05-04 12:51 | 45.26733 | 12.04459 | 3979 ft | 242 kts | 41° |
| 2026-05-04 12:51 | 45.27976 | 12.06055 | 3971 ft | 240 kts | 41° |
| 2026-05-04 12:52 | 45.29210 | 12.07642 | 3968 ft | 239 kts | 41° |
| 2026-05-04 12:52 | 45.30448 | 12.09214 | 3953 ft | 239 kts | 40° |
| 2026-05-04 12:52 | 45.31861 | 12.10406 | 3945 ft | 235 kts | 12° |
| 2026-05-04 12:52 | 45.33419 | 12.11089 | 3932 ft | 239 kts | 34° |
| 2026-05-04 12:53 | 45.34467 | 12.12880 | 3977 ft | 242 kts | 59° |
| 2026-05-04 12:53 | 45.35403 | 12.14848 | 3975 ft | 235 kts | 50° |
| 2026-05-04 12:53 | 45.36429 | 12.16559 | 3948 ft | 219 kts | 48° |
| 2026-05-04 12:53 | 45.37454 | 12.18138 | 3511 ft | 226 kts | 43° |
| 2026-05-04 12:54 | 45.38601 | 12.19712 | 3135 ft | 227 kts | 44° |
| 2026-05-04 12:54 | 45.39706 | 12.21252 | 2757 ft | 219 kts | 43° |
| 2026-05-04 12:54 | 45.40777 | 12.22653 | 2564 ft | 202 kts | 42° |
| 2026-05-04 12:54 | 45.41815 | 12.23943 | 2102 ft | 194 kts | 41° |
| 2026-05-04 12:55 | 45.42773 | 12.25181 | 1827 ft | 180 kts | 43° |
| 2026-05-04 12:55 | 45.43647 | 12.26272 | 1595 ft | 166 kts | 44° |
| 2026-05-04 12:55 | 45.44486 | 12.27388 | 1368 ft | 164 kts | 44° |
| 2026-05-04 12:55 | 45.45279 | 12.28498 | 1155 ft | 157 kts | 43° |
| 2026-05-04 12:56 | 45.46098 | 12.29500 | 910 ft | 155 kts | 41° |
| 2026-05-04 12:56 | 45.46910 | 12.30540 | 716 ft | 158 kts | 46° |
| 2026-05-04 12:56 | 45.47719 | 12.31587 | 483 ft | 155 kts | 44° |
| 2026-05-04 12:56 | 45.48511 | 12.32634 | 269 ft | 155 kts | 46° |
| 2026-05-04 12:57 | 45.49319 | 12.33652 | 93 ft | 155 kts | 47° |
| 2026-05-04 12:57 | 45.50086 | 12.34642 | 14 ft | 130 kts | 42° |
| 2026-05-04 12:57 | 45.50580 | 12.35277 | 12 ft | 57 kts | 38° |
| 2026-05-04 12:57 | 45.50804 | 12.35425 | 16 ft | 27 kts | 11° |
| 2026-05-04 12:58 | 45.50936 | 12.35460 | 16 ft | 16 kts | 356° |
| 2026-05-04 12:58 | 45.50980 | 12.35341 | 16 ft | 14 kts | 254° |
| 2026-05-04 12:58 | 45.50953 | 12.35213 | 15 ft | 13 kts | 246° |
| 2026-05-04 12:58 | 45.50891 | 12.35120 | 15 ft | 13 kts | 220° |
| 2026-05-04 12:59 | 45.50826 | 12.35037 | 15 ft | 12 kts | 224° |
| 2026-05-04 12:59 | 45.50758 | 12.34950 | 15 ft | 15 kts | 221° |
| 2026-05-04 12:59 | 45.50666 | 12.34833 | 15 ft | 20 kts | 223° |
| 2026-05-04 12:59 | 45.50605 | 12.34666 | 15 ft | 20 kts | 266° |
| 2026-05-04 13:00 | 45.50600 | 12.34483 | 15 ft | 18 kts | 265° |
| 2026-05-04 13:00 | 45.50632 | 12.34349 | 15 ft | 15 kts | 315° |
| 2026-05-04 13:00 | 45.50703 | 12.34238 | 38 ft | 16 kts | 313° |
| 2026-05-04 13:00 | 45.50764 | 12.34139 | 15 ft | 13 kts | 300° |
| 2026-05-04 13:01 | 45.50799 | 12.34043 | 16 ft | 7 kts | 306° |
| 2026-05-04 13:01 | 45.50810 | 12.34004 | 15 ft | 2 kts | 255° |
| 2026-05-04 13:01 | 45.50794 | 12.33980 | 14 ft | 5 kts | 221° |
| 2026-05-04 13:01 | 45.50778 | 12.33960 | 15 ft | 1 kts | 222° |
| 2026-05-04 13:02 | 45.50777 | 12.33959 | 14 ft | 0 kts | 222° |